sensor_id;sensor_type;location;lat;lon;timestamp;P1;durP1;ratioP1;P2;durP2;ratioP2
16727;SDS011;8482;54.396;18.590;2023-08-08T00:01:27;7.75;;;2.35;;
16727;SDS011;8482;54.396;18.590;2023-08-08T00:03:53;7.90;;;2.63;;
16727;SDS011;8482;54.396;18.590;2023-08-08T00:06:19;11.63;;;3.20;;
16727;SDS011;8482;54.396;18.590;2023-08-08T00:08:44;7.88;;;2.28;;
16727;SDS011;8482;54.396;18.590;2023-08-08T00:11:10;8.30;;;1.98;;
16727;SDS011;8482;54.396;18.590;2023-08-08T00:13:36;4.35;;;1.70;;
16727;SDS011;8482;54.396;18.590;2023-08-08T00:16:02;8.05;;;2.15;;
16727;SDS011;8482;54.396;18.590;2023-08-08T00:18:28;7.00;;;2.17;;
16727;SDS011;8482;54.396;18.590;2023-08-08T00:20:54;10.85;;;2.42;;
16727;SDS011;8482;54.396;18.590;2023-08-08T00:23:19;7.57;;;2.20;;
16727;SDS011;8482;54.396;18.590;2023-08-08T00:25:45;9.05;;;2.63;;
16727;SDS011;8482;54.396;18.590;2023-08-08T00:28:15;10.10;;;2.42;;
16727;SDS011;8482;54.396;18.590;2023-08-08T00:30:41;9.95;;;2.47;;
16727;SDS011;8482;54.396;18.590;2023-08-08T00:33:08;7.72;;;2.53;;
16727;SDS011;8482;54.396;18.590;2023-08-08T00:35:34;8.57;;;2.30;;
16727;SDS011;8482;54.396;18.590;2023-08-08T00:37:59;6.85;;;2.08;;
16727;SDS011;8482;54.396;18.590;2023-08-08T00:40:25;10.10;;;1.95;;
16727;SDS011;8482;54.396;18.590;2023-08-08T00:42:51;6.18;;;2.42;;
16727;SDS011;8482;54.396;18.590;2023-08-08T00:45:17;6.45;;;2.30;;
16727;SDS011;8482;54.396;18.590;2023-08-08T00:47:43;9.10;;;2.40;;
16727;SDS011;8482;54.396;18.590;2023-08-08T00:50:09;6.95;;;2.10;;
16727;SDS011;8482;54.396;18.590;2023-08-08T00:52:37;8.13;;;2.53;;
16727;SDS011;8482;54.396;18.590;2023-08-08T00:55:05;5.70;;;2.17;;
16727;SDS011;8482;54.396;18.590;2023-08-08T00:57:32;8.02;;;2.10;;
16727;SDS011;8482;54.396;18.590;2023-08-08T00:59:59;6.68;;;2.15;;
16727;SDS011;8482;54.396;18.590;2023-08-08T01:02:25;8.48;;;2.40;;
16727;SDS011;8482;54.396;18.590;2023-08-08T01:04:51;6.80;;;2.10;;
16727;SDS011;8482;54.396;18.590;2023-08-08T01:12:23;7.40;;;2.13;;
16727;SDS011;8482;54.396;18.590;2023-08-08T01:14:50;6.93;;;2.38;;
16727;SDS011;8482;54.396;18.590;2023-08-08T01:17:17;7.63;;;2.30;;
16727;SDS011;8482;54.396;18.590;2023-08-08T01:19:46;6.20;;;2.15;;
16727;SDS011;8482;54.396;18.590;2023-08-08T01:22:17;8.10;;;2.15;;
16727;SDS011;8482;54.396;18.590;2023-08-08T01:24:57;6.05;;;1.90;;
16727;SDS011;8482;54.396;18.590;2023-08-08T01:27:25;6.07;;;1.80;;
16727;SDS011;8482;54.396;18.590;2023-08-08T01:29:52;8.55;;;2.50;;
16727;SDS011;8482;54.396;18.590;2023-08-08T01:32:18;8.05;;;2.00;;
16727;SDS011;8482;54.396;18.590;2023-08-08T01:34:44;11.27;;;2.50;;
16727;SDS011;8482;54.396;18.590;2023-08-08T01:40:17;8.10;;;1.92;;
16727;SDS011;8482;54.396;18.590;2023-08-08T01:42:45;5.05;;;1.60;;
16727;SDS011;8482;54.396;18.590;2023-08-08T01:45:14;8.18;;;2.20;;
16727;SDS011;8482;54.396;18.590;2023-08-08T01:47:41;6.25;;;1.95;;
16727;SDS011;8482;54.396;18.590;2023-08-08T01:50:07;9.07;;;2.65;;
16727;SDS011;8482;54.396;18.590;2023-08-08T01:52:34;10.05;;;2.33;;
16727;SDS011;8482;54.396;18.590;2023-08-08T01:55:00;7.70;;;2.10;;
16727;SDS011;8482;54.396;18.590;2023-08-08T01:57:27;5.88;;;2.17;;
16727;SDS011;8482;54.396;18.590;2023-08-08T01:59:52;7.90;;;2.60;;
16727;SDS011;8482;54.396;18.590;2023-08-08T02:02:18;6.70;;;2.10;;
16727;SDS011;8482;54.396;18.590;2023-08-08T02:04:44;7.63;;;2.13;;
16727;SDS011;8482;54.396;18.590;2023-08-08T02:07:10;5.25;;;1.92;;
16727;SDS011;8482;54.396;18.590;2023-08-08T02:09:35;6.57;;;1.70;;
16727;SDS011;8482;54.396;18.590;2023-08-08T02:12:01;6.88;;;2.13;;
16727;SDS011;8482;54.396;18.590;2023-08-08T02:14:27;6.05;;;1.92;;
16727;SDS011;8482;54.396;18.590;2023-08-08T02:16:53;6.35;;;1.90;;
16727;SDS011;8482;54.396;18.590;2023-08-08T02:19:19;6.70;;;2.05;;
16727;SDS011;8482;54.396;18.590;2023-08-08T02:21:45;5.45;;;2.30;;
16727;SDS011;8482;54.396;18.590;2023-08-08T02:24:11;14.27;;;2.58;;
16727;SDS011;8482;54.396;18.590;2023-08-08T02:26:37;6.65;;;2.10;;
16727;SDS011;8482;54.396;18.590;2023-08-08T02:29:02;6.47;;;2.40;;
16727;SDS011;8482;54.396;18.590;2023-08-08T02:31:28;9.48;;;2.63;;
16727;SDS011;8482;54.396;18.590;2023-08-08T02:33:54;6.68;;;2.30;;
16727;SDS011;8482;54.396;18.590;2023-08-08T02:36:20;7.05;;;2.30;;
16727;SDS011;8482;54.396;18.590;2023-08-08T02:38:46;5.68;;;2.10;;
16727;SDS011;8482;54.396;18.590;2023-08-08T02:41:12;8.98;;;2.30;;
16727;SDS011;8482;54.396;18.590;2023-08-08T02:43:38;6.30;;;2.08;;
16727;SDS011;8482;54.396;18.590;2023-08-08T02:46:04;10.35;;;2.60;;
16727;SDS011;8482;54.396;18.590;2023-08-08T02:48:29;6.72;;;2.17;;
16727;SDS011;8482;54.396;18.590;2023-08-08T02:50:56;6.18;;;2.55;;
16727;SDS011;8482;54.396;18.590;2023-08-08T02:53:22;7.28;;;2.75;;
16727;SDS011;8482;54.396;18.590;2023-08-08T02:55:47;6.63;;;2.10;;
16727;SDS011;8482;54.396;18.590;2023-08-08T02:58:13;6.50;;;2.00;;
16727;SDS011;8482;54.396;18.590;2023-08-08T03:00:39;7.57;;;1.98;;
16727;SDS011;8482;54.396;18.590;2023-08-08T03:03:05;5.80;;;2.28;;
16727;SDS011;8482;54.396;18.590;2023-08-08T03:05:31;4.22;;;2.10;;
16727;SDS011;8482;54.396;18.590;2023-08-08T03:07:57;8.45;;;2.50;;
16727;SDS011;8482;54.396;18.590;2023-08-08T03:10:23;6.30;;;2.28;;
16727;SDS011;8482;54.396;18.590;2023-08-08T03:12:50;7.47;;;2.20;;
16727;SDS011;8482;54.396;18.590;2023-08-08T03:15:15;6.90;;;1.90;;
16727;SDS011;8482;54.396;18.590;2023-08-08T03:17:41;5.88;;;2.20;;
16727;SDS011;8482;54.396;18.590;2023-08-08T03:20:07;8.98;;;2.53;;
16727;SDS011;8482;54.396;18.590;2023-08-08T03:22:35;5.32;;;1.92;;
16727;SDS011;8482;54.396;18.590;2023-08-08T03:25:02;7.57;;;2.95;;
16727;SDS011;8482;54.396;18.590;2023-08-08T03:27:29;9.40;;;2.20;;
16727;SDS011;8482;54.396;18.590;2023-08-08T03:29:55;6.50;;;2.10;;
16727;SDS011;8482;54.396;18.590;2023-08-08T03:32:21;6.25;;;2.50;;
16727;SDS011;8482;54.396;18.590;2023-08-08T03:34:47;5.43;;;2.03;;
16727;SDS011;8482;54.396;18.590;2023-08-08T03:37:14;10.93;;;2.72;;
16727;SDS011;8482;54.396;18.590;2023-08-08T03:39:40;8.25;;;2.22;;
16727;SDS011;8482;54.396;18.590;2023-08-08T03:42:06;6.75;;;2.38;;
16727;SDS011;8482;54.396;18.590;2023-08-08T03:44:32;5.13;;;2.05;;
16727;SDS011;8482;54.396;18.590;2023-08-08T03:46:58;8.38;;;3.05;;
16727;SDS011;8482;54.396;18.590;2023-08-08T03:49:25;7.38;;;2.60;;
16727;SDS011;8482;54.396;18.590;2023-08-08T03:51:51;5.75;;;2.17;;
16727;SDS011;8482;54.396;18.590;2023-08-08T03:54:17;5.45;;;2.17;;
16727;SDS011;8482;54.396;18.590;2023-08-08T03:56:43;6.95;;;2.20;;
16727;SDS011;8482;54.396;18.590;2023-08-08T03:59:09;5.07;;;2.00;;
16727;SDS011;8482;54.396;18.590;2023-08-08T04:01:35;6.05;;;1.90;;
16727;SDS011;8482;54.396;18.590;2023-08-08T04:04:03;6.45;;;2.00;;
16727;SDS011;8482;54.396;18.590;2023-08-08T04:06:30;7.70;;;2.45;;
16727;SDS011;8482;54.396;18.590;2023-08-08T04:08:56;7.72;;;2.10;;
16727;SDS011;8482;54.396;18.590;2023-08-08T04:11:22;6.90;;;2.58;;
16727;SDS011;8482;54.396;18.590;2023-08-08T04:13:47;6.55;;;2.15;;
16727;SDS011;8482;54.396;18.590;2023-08-08T04:16:13;5.65;;;2.65;;
16727;SDS011;8482;54.396;18.590;2023-08-08T04:18:39;7.82;;;2.35;;
16727;SDS011;8482;54.396;18.590;2023-08-08T04:21:05;9.00;;;2.20;;
16727;SDS011;8482;54.396;18.590;2023-08-08T04:23:31;8.75;;;1.88;;
16727;SDS011;8482;54.396;18.590;2023-08-08T04:25:57;7.15;;;1.88;;
16727;SDS011;8482;54.396;18.590;2023-08-08T04:28:22;5.90;;;2.40;;
16727;SDS011;8482;54.396;18.590;2023-08-08T04:30:48;6.03;;;2.17;;
16727;SDS011;8482;54.396;18.590;2023-08-08T04:33:14;4.65;;;1.67;;
16727;SDS011;8482;54.396;18.590;2023-08-08T04:35:40;5.65;;;2.45;;
16727;SDS011;8482;54.396;18.590;2023-08-08T04:38:06;6.82;;;1.90;;
16727;SDS011;8482;54.396;18.590;2023-08-08T04:40:32;7.47;;;2.20;;
16727;SDS011;8482;54.396;18.590;2023-08-08T04:42:57;4.80;;;1.80;;
16727;SDS011;8482;54.396;18.590;2023-08-08T04:45:23;5.55;;;1.63;;
16727;SDS011;8482;54.396;18.590;2023-08-08T04:47:49;5.88;;;1.85;;
16727;SDS011;8482;54.396;18.590;2023-08-08T04:50:15;4.03;;;1.70;;
16727;SDS011;8482;54.396;18.590;2023-08-08T04:52:40;6.15;;;1.73;;
16727;SDS011;8482;54.396;18.590;2023-08-08T04:55:06;5.35;;;1.85;;
16727;SDS011;8482;54.396;18.590;2023-08-08T04:57:32;4.82;;;1.70;;
16727;SDS011;8482;54.396;18.590;2023-08-08T04:59:58;7.68;;;2.25;;
16727;SDS011;8482;54.396;18.590;2023-08-08T05:02:29;4.85;;;1.63;;
16727;SDS011;8482;54.396;18.590;2023-08-08T05:04:55;5.07;;;1.83;;
16727;SDS011;8482;54.396;18.590;2023-08-08T05:07:21;6.20;;;2.10;;
16727;SDS011;8482;54.396;18.590;2023-08-08T05:09:47;5.40;;;1.90;;
16727;SDS011;8482;54.396;18.590;2023-08-08T05:12:12;5.57;;;2.17;;
16727;SDS011;8482;54.396;18.590;2023-08-08T05:14:38;8.10;;;2.08;;
16727;SDS011;8482;54.396;18.590;2023-08-08T05:17:04;6.88;;;2.05;;
16727;SDS011;8482;54.396;18.590;2023-08-08T05:19:30;4.43;;;1.80;;
16727;SDS011;8482;54.396;18.590;2023-08-08T05:21:56;4.07;;;1.55;;
16727;SDS011;8482;54.396;18.590;2023-08-08T05:24:22;5.20;;;1.98;;
16727;SDS011;8482;54.396;18.590;2023-08-08T05:26:48;7.22;;;2.28;;
16727;SDS011;8482;54.396;18.590;2023-08-08T05:29:14;6.78;;;1.83;;
16727;SDS011;8482;54.396;18.590;2023-08-08T05:31:39;5.20;;;1.77;;
16727;SDS011;8482;54.396;18.590;2023-08-08T05:34:05;5.40;;;2.10;;
16727;SDS011;8482;54.396;18.590;2023-08-08T05:36:31;5.13;;;1.90;;
16727;SDS011;8482;54.396;18.590;2023-08-08T05:38:57;5.82;;;1.85;;
16727;SDS011;8482;54.396;18.590;2023-08-08T05:41:23;5.82;;;1.83;;
16727;SDS011;8482;54.396;18.590;2023-08-08T05:43:48;3.88;;;1.42;;
16727;SDS011;8482;54.396;18.590;2023-08-08T05:46:15;4.03;;;1.70;;
16727;SDS011;8482;54.396;18.590;2023-08-08T05:48:41;5.18;;;1.77;;
16727;SDS011;8482;54.396;18.590;2023-08-08T05:51:07;4.63;;;1.90;;
16727;SDS011;8482;54.396;18.590;2023-08-08T05:53:32;3.42;;;1.75;;
16727;SDS011;8482;54.396;18.590;2023-08-08T05:55:58;7.15;;;2.03;;
16727;SDS011;8482;54.396;18.590;2023-08-08T05:58:24;6.30;;;2.05;;
16727;SDS011;8482;54.396;18.590;2023-08-08T06:00:50;5.90;;;2.17;;
16727;SDS011;8482;54.396;18.590;2023-08-08T06:03:16;5.55;;;1.48;;
16727;SDS011;8482;54.396;18.590;2023-08-08T06:05:42;5.68;;;1.95;;
16727;SDS011;8482;54.396;18.590;2023-08-08T06:08:08;7.75;;;1.90;;
16727;SDS011;8482;54.396;18.590;2023-08-08T06:10:37;4.05;;;1.77;;
16727;SDS011;8482;54.396;18.590;2023-08-08T06:13:03;6.05;;;2.00;;
16727;SDS011;8482;54.396;18.590;2023-08-08T06:15:29;4.97;;;1.60;;
16727;SDS011;8482;54.396;18.590;2023-08-08T06:17:54;6.22;;;2.33;;
16727;SDS011;8482;54.396;18.590;2023-08-08T06:20:20;3.35;;;1.65;;
16727;SDS011;8482;54.396;18.590;2023-08-08T06:22:46;9.32;;;2.03;;
16727;SDS011;8482;54.396;18.590;2023-08-08T06:25:12;5.05;;;1.88;;
16727;SDS011;8482;54.396;18.590;2023-08-08T06:27:38;5.35;;;1.77;;
16727;SDS011;8482;54.396;18.590;2023-08-08T06:30:04;4.00;;;1.60;;
16727;SDS011;8482;54.396;18.590;2023-08-08T06:32:31;4.68;;;1.70;;
16727;SDS011;8482;54.396;18.590;2023-08-08T06:34:56;5.40;;;1.73;;
16727;SDS011;8482;54.396;18.590;2023-08-08T06:37:22;4.90;;;1.85;;
16727;SDS011;8482;54.396;18.590;2023-08-08T06:39:48;5.20;;;1.88;;
16727;SDS011;8482;54.396;18.590;2023-08-08T06:42:14;4.38;;;1.60;;
16727;SDS011;8482;54.396;18.590;2023-08-08T06:44:41;3.53;;;1.58;;
16727;SDS011;8482;54.396;18.590;2023-08-08T06:47:08;5.07;;;1.92;;
16727;SDS011;8482;54.396;18.590;2023-08-08T06:49:36;4.38;;;1.40;;
16727;SDS011;8482;54.396;18.590;2023-08-08T06:52:03;6.18;;;2.15;;
16727;SDS011;8482;54.396;18.590;2023-08-08T06:54:30;4.57;;;1.67;;
16727;SDS011;8482;54.396;18.590;2023-08-08T06:56:57;7.25;;;1.95;;
16727;SDS011;8482;54.396;18.590;2023-08-08T06:59:23;5.57;;;1.85;;
16727;SDS011;8482;54.396;18.590;2023-08-08T07:01:49;4.72;;;2.10;;
16727;SDS011;8482;54.396;18.590;2023-08-08T07:04:15;6.28;;;1.60;;
16727;SDS011;8482;54.396;18.590;2023-08-08T07:06:43;6.85;;;2.17;;
16727;SDS011;8482;54.396;18.590;2023-08-08T07:09:09;6.35;;;2.28;;
16727;SDS011;8482;54.396;18.590;2023-08-08T07:11:39;4.03;;;1.73;;
16727;SDS011;8482;54.396;18.590;2023-08-08T07:14:05;6.03;;;1.65;;
16727;SDS011;8482;54.396;18.590;2023-08-08T07:16:31;7.25;;;1.70;;
16727;SDS011;8482;54.396;18.590;2023-08-08T07:18:57;5.97;;;1.75;;
16727;SDS011;8482;54.396;18.590;2023-08-08T07:21:23;4.35;;;1.98;;
16727;SDS011;8482;54.396;18.590;2023-08-08T07:23:48;4.35;;;1.42;;
16727;SDS011;8482;54.396;18.590;2023-08-08T07:26:14;4.63;;;1.45;;
16727;SDS011;8482;54.396;18.590;2023-08-08T07:28:40;5.22;;;1.50;;
16727;SDS011;8482;54.396;18.590;2023-08-08T07:31:06;3.75;;;1.50;;
16727;SDS011;8482;54.396;18.590;2023-08-08T07:33:32;5.00;;;1.80;;
16727;SDS011;8482;54.396;18.590;2023-08-08T07:35:57;6.70;;;1.90;;
16727;SDS011;8482;54.396;18.590;2023-08-08T07:38:23;3.83;;;1.70;;
16727;SDS011;8482;54.396;18.590;2023-08-08T07:40:49;7.47;;;1.90;;
16727;SDS011;8482;54.396;18.590;2023-08-08T07:43:15;6.93;;;1.83;;
16727;SDS011;8482;54.396;18.590;2023-08-08T07:45:41;6.38;;;2.10;;
16727;SDS011;8482;54.396;18.590;2023-08-08T07:48:07;5.65;;;1.70;;
16727;SDS011;8482;54.396;18.590;2023-08-08T07:50:33;4.43;;;1.50;;
16727;SDS011;8482;54.396;18.590;2023-08-08T07:52:59;6.10;;;1.70;;
16727;SDS011;8482;54.396;18.590;2023-08-08T07:55:25;3.53;;;1.50;;
16727;SDS011;8482;54.396;18.590;2023-08-08T07:57:51;7.93;;;2.58;;
16727;SDS011;8482;54.396;18.590;2023-08-08T08:00:17;4.90;;;1.90;;
16727;SDS011;8482;54.396;18.590;2023-08-08T08:02:45;4.13;;;1.40;;
16727;SDS011;8482;54.396;18.590;2023-08-08T08:05:11;8.25;;;2.17;;
16727;SDS011;8482;54.396;18.590;2023-08-08T08:07:38;5.10;;;1.80;;
16727;SDS011;8482;54.396;18.590;2023-08-08T08:10:06;4.53;;;1.52;;
16727;SDS011;8482;54.396;18.590;2023-08-08T08:12:35;5.80;;;2.03;;
16727;SDS011;8482;54.396;18.590;2023-08-08T08:15:02;7.50;;;2.20;;
16727;SDS011;8482;54.396;18.590;2023-08-08T08:17:29;5.13;;;1.67;;
16727;SDS011;8482;54.396;18.590;2023-08-08T08:19:55;4.28;;;1.65;;
16727;SDS011;8482;54.396;18.590;2023-08-08T08:22:20;7.63;;;2.13;;
16727;SDS011;8482;54.396;18.590;2023-08-08T08:24:47;4.50;;;1.63;;
16727;SDS011;8482;54.396;18.590;2023-08-08T08:27:12;6.43;;;1.98;;
16727;SDS011;8482;54.396;18.590;2023-08-08T08:29:39;6.18;;;2.20;;
16727;SDS011;8482;54.396;18.590;2023-08-08T08:32:05;6.43;;;2.58;;
16727;SDS011;8482;54.396;18.590;2023-08-08T08:34:31;4.55;;;1.75;;
16727;SDS011;8482;54.396;18.590;2023-08-08T08:36:57;6.07;;;2.03;;
16727;SDS011;8482;54.396;18.590;2023-08-08T08:39:23;4.00;;;1.50;;
16727;SDS011;8482;54.396;18.590;2023-08-08T08:41:49;4.65;;;1.75;;
16727;SDS011;8482;54.396;18.590;2023-08-08T08:44:26;4.78;;;1.88;;
16727;SDS011;8482;54.396;18.590;2023-08-08T08:46:56;7.28;;;2.38;;
16727;SDS011;8482;54.396;18.590;2023-08-08T08:49:29;2.95;;;1.40;;
16727;SDS011;8482;54.396;18.590;2023-08-08T08:51:57;4.45;;;1.73;;
16727;SDS011;8482;54.396;18.590;2023-08-08T08:54:30;5.60;;;1.75;;
16727;SDS011;8482;54.396;18.590;2023-08-08T08:56:58;5.80;;;2.13;;
16727;SDS011;8482;54.396;18.590;2023-08-08T08:59:24;5.25;;;1.67;;
16727;SDS011;8482;54.396;18.590;2023-08-08T09:01:51;4.45;;;1.63;;
16727;SDS011;8482;54.396;18.590;2023-08-08T09:04:18;5.07;;;1.70;;
16727;SDS011;8482;54.396;18.590;2023-08-08T09:06:47;5.20;;;2.00;;
16727;SDS011;8482;54.396;18.590;2023-08-08T09:09:14;5.50;;;1.70;;
16727;SDS011;8482;54.396;18.590;2023-08-08T09:11:50;4.68;;;1.50;;
16727;SDS011;8482;54.396;18.590;2023-08-08T09:14:22;5.30;;;1.65;;
16727;SDS011;8482;54.396;18.590;2023-08-08T09:16:50;5.53;;;1.67;;
16727;SDS011;8482;54.396;18.590;2023-08-08T09:19:18;5.40;;;1.63;;
16727;SDS011;8482;54.396;18.590;2023-08-08T09:21:46;4.80;;;1.80;;
16727;SDS011;8482;54.396;18.590;2023-08-08T09:24:12;6.28;;;2.03;;
16727;SDS011;8482;54.396;18.590;2023-08-08T09:26:39;4.50;;;1.55;;
16727;SDS011;8482;54.396;18.590;2023-08-08T09:29:06;5.13;;;1.90;;
16727;SDS011;8482;54.396;18.590;2023-08-08T09:31:36;6.05;;;1.98;;
16727;SDS011;8482;54.396;18.590;2023-08-08T09:34:02;5.07;;;1.58;;
16727;SDS011;8482;54.396;18.590;2023-08-08T09:36:30;4.63;;;1.52;;
16727;SDS011;8482;54.396;18.590;2023-08-08T09:38:56;4.25;;;1.73;;
16727;SDS011;8482;54.396;18.590;2023-08-08T09:41:22;5.93;;;1.85;;
16727;SDS011;8482;54.396;18.590;2023-08-08T09:43:50;4.28;;;1.67;;
16727;SDS011;8482;54.396;18.590;2023-08-08T09:46:18;3.72;;;1.75;;
16727;SDS011;8482;54.396;18.590;2023-08-08T09:48:45;3.92;;;1.80;;
16727;SDS011;8482;54.396;18.590;2023-08-08T09:51:12;3.90;;;1.70;;
16727;SDS011;8482;54.396;18.590;2023-08-08T09:53:39;6.55;;;1.60;;
16727;SDS011;8482;54.396;18.590;2023-08-08T09:56:06;3.92;;;1.38;;
16727;SDS011;8482;54.396;18.590;2023-08-08T09:58:33;5.45;;;2.10;;
16727;SDS011;8482;54.396;18.590;2023-08-08T10:01:00;6.18;;;1.58;;
16727;SDS011;8482;54.396;18.590;2023-08-08T10:03:26;5.53;;;1.98;;
16727;SDS011;8482;54.396;18.590;2023-08-08T10:05:53;4.80;;;1.50;;
16727;SDS011;8482;54.396;18.590;2023-08-08T10:08:19;4.45;;;1.50;;
16727;SDS011;8482;54.396;18.590;2023-08-08T10:10:46;3.80;;;1.63;;
16727;SDS011;8482;54.396;18.590;2023-08-08T10:13:25;7.88;;;1.70;;
16727;SDS011;8482;54.396;18.590;2023-08-08T10:15:52;5.15;;;1.60;;
16727;SDS011;8482;54.396;18.590;2023-08-08T10:18:22;5.95;;;1.75;;
16727;SDS011;8482;54.396;18.590;2023-08-08T10:20:49;4.57;;;1.50;;
16727;SDS011;8482;54.396;18.590;2023-08-08T10:23:18;3.10;;;1.52;;
16727;SDS011;8482;54.396;18.590;2023-08-08T10:25:45;3.80;;;1.80;;
16727;SDS011;8482;54.396;18.590;2023-08-08T10:28:17;5.65;;;2.28;;
16727;SDS011;8482;54.396;18.590;2023-08-08T10:30:46;8.90;;;2.05;;
16727;SDS011;8482;54.396;18.590;2023-08-08T10:33:18;4.43;;;1.70;;
16727;SDS011;8482;54.396;18.590;2023-08-08T10:36:05;5.25;;;1.65;;
16727;SDS011;8482;54.396;18.590;2023-08-08T10:38:43;3.67;;;1.30;;
16727;SDS011;8482;54.396;18.590;2023-08-08T10:41:18;4.97;;;1.60;;
16727;SDS011;8482;54.396;18.590;2023-08-08T10:43:57;5.22;;;1.92;;
16727;SDS011;8482;54.396;18.590;2023-08-08T10:46:24;5.40;;;1.98;;
16727;SDS011;8482;54.396;18.590;2023-08-08T10:48:59;5.95;;;1.98;;
16727;SDS011;8482;54.396;18.590;2023-08-08T10:51:33;6.00;;;1.70;;
16727;SDS011;8482;54.396;18.590;2023-08-08T10:54:05;6.22;;;1.95;;
16727;SDS011;8482;54.396;18.590;2023-08-08T10:56:38;4.20;;;1.73;;
16727;SDS011;8482;54.396;18.590;2023-08-08T11:02:03;2.53;;;1.35;;
16727;SDS011;8482;54.396;18.590;2023-08-08T11:04:30;6.00;;;1.85;;
16727;SDS011;8482;54.396;18.590;2023-08-08T11:06:57;3.47;;;1.30;;
16727;SDS011;8482;54.396;18.590;2023-08-08T11:09:24;2.58;;;1.13;;
16727;SDS011;8482;54.396;18.590;2023-08-08T11:11:51;2.80;;;1.40;;
16727;SDS011;8482;54.396;18.590;2023-08-08T11:14:21;3.63;;;1.65;;
16727;SDS011;8482;54.396;18.590;2023-08-08T11:16:48;4.90;;;1.70;;
16727;SDS011;8482;54.396;18.590;2023-08-08T11:19:16;5.05;;;1.85;;
16727;SDS011;8482;54.396;18.590;2023-08-08T11:21:44;2.70;;;1.20;;
16727;SDS011;8482;54.396;18.590;2023-08-08T11:24:12;5.30;;;1.70;;
16727;SDS011;8482;54.396;18.590;2023-08-08T11:26:42;6.80;;;1.65;;
16727;SDS011;8482;54.396;18.590;2023-08-08T11:29:12;6.88;;;1.60;;
16727;SDS011;8482;54.396;18.590;2023-08-08T11:31:37;2.95;;;1.50;;
16727;SDS011;8482;54.396;18.590;2023-08-08T11:34:04;3.78;;;1.80;;
16727;SDS011;8482;54.396;18.590;2023-08-08T11:36:33;2.78;;;1.40;;
16727;SDS011;8482;54.396;18.590;2023-08-08T11:39:01;2.13;;;1.30;;
16727;SDS011;8482;54.396;18.590;2023-08-08T11:41:35;6.38;;;1.35;;
16727;SDS011;8482;54.396;18.590;2023-08-08T11:44:03;4.05;;;1.15;;
16727;SDS011;8482;54.396;18.590;2023-08-08T11:46:30;3.80;;;1.40;;
16727;SDS011;8482;54.396;18.590;2023-08-08T11:49:05;4.03;;;1.23;;
16727;SDS011;8482;54.396;18.590;2023-08-08T11:51:34;1.80;;;1.10;;
16727;SDS011;8482;54.396;18.590;2023-08-08T11:54:01;2.55;;;1.05;;
16727;SDS011;8482;54.396;18.590;2023-08-08T11:56:33;2.20;;;1.10;;
16727;SDS011;8482;54.396;18.590;2023-08-08T11:59:00;2.17;;;1.00;;
16727;SDS011;8482;54.396;18.590;2023-08-08T12:01:27;2.28;;;1.10;;
16727;SDS011;8482;54.396;18.590;2023-08-08T12:03:56;2.67;;;1.20;;
16727;SDS011;8482;54.396;18.590;2023-08-08T12:06:22;2.88;;;1.42;;
16727;SDS011;8482;54.396;18.590;2023-08-08T12:08:54;3.17;;;1.45;;
16727;SDS011;8482;54.396;18.590;2023-08-08T12:11:20;3.13;;;1.23;;
16727;SDS011;8482;54.396;18.590;2023-08-08T12:13:46;2.22;;;1.25;;
16727;SDS011;8482;54.396;18.590;2023-08-08T12:16:13;3.53;;;1.10;;
16727;SDS011;8482;54.396;18.590;2023-08-08T12:18:39;5.18;;;1.20;;
16727;SDS011;8482;54.396;18.590;2023-08-08T12:21:06;2.05;;;1.00;;
16727;SDS011;8482;54.396;18.590;2023-08-08T12:23:34;3.08;;;1.15;;
16727;SDS011;8482;54.396;18.590;2023-08-08T12:26:04;2.65;;;1.33;;
16727;SDS011;8482;54.396;18.590;2023-08-08T12:28:32;3.53;;;1.20;;
16727;SDS011;8482;54.396;18.590;2023-08-08T12:30:58;2.70;;;1.00;;
16727;SDS011;8482;54.396;18.590;2023-08-08T12:33:25;2.35;;;1.20;;
16727;SDS011;8482;54.396;18.590;2023-08-08T12:35:51;4.15;;;1.45;;
16727;SDS011;8482;54.396;18.590;2023-08-08T12:38:16;2.33;;;1.10;;
16727;SDS011;8482;54.396;18.590;2023-08-08T12:40:42;2.08;;;1.17;;
16727;SDS011;8482;54.396;18.590;2023-08-08T12:43:09;2.72;;;1.20;;
16727;SDS011;8482;54.396;18.590;2023-08-08T12:45:42;1.67;;;1.08;;
16727;SDS011;8482;54.396;18.590;2023-08-08T12:48:10;3.25;;;1.20;;
16727;SDS011;8482;54.396;18.590;2023-08-08T12:50:36;3.28;;;1.10;;
16727;SDS011;8482;54.396;18.590;2023-08-08T12:53:02;3.03;;;1.20;;
16727;SDS011;8482;54.396;18.590;2023-08-08T12:55:29;1.50;;;1.00;;
16727;SDS011;8482;54.396;18.590;2023-08-08T12:57:55;2.33;;;1.20;;
16727;SDS011;8482;54.396;18.590;2023-08-08T13:00:22;1.67;;;1.10;;
16727;SDS011;8482;54.396;18.590;2023-08-08T13:02:48;1.60;;;1.13;;
16727;SDS011;8482;54.396;18.590;2023-08-08T13:05:14;1.30;;;0.90;;
16727;SDS011;8482;54.396;18.590;2023-08-08T13:07:40;3.67;;;1.15;;
16727;SDS011;8482;54.396;18.590;2023-08-08T13:10:06;1.52;;;1.10;;
16727;SDS011;8482;54.396;18.590;2023-08-08T13:12:33;3.15;;;1.38;;
16727;SDS011;8482;54.396;18.590;2023-08-08T13:14:58;2.08;;;1.20;;
16727;SDS011;8482;54.396;18.590;2023-08-08T13:17:24;1.77;;;1.08;;
16727;SDS011;8482;54.396;18.590;2023-08-08T13:19:50;2.97;;;1.30;;
16727;SDS011;8482;54.396;18.590;2023-08-08T13:22:16;2.58;;;1.20;;
16727;SDS011;8482;54.396;18.590;2023-08-08T13:24:42;2.80;;;1.10;;
16727;SDS011;8482;54.396;18.590;2023-08-08T13:27:07;1.20;;;1.00;;
16727;SDS011;8482;54.396;18.590;2023-08-08T13:29:33;2.35;;;1.08;;
16727;SDS011;8482;54.396;18.590;2023-08-08T13:31:59;3.00;;;1.10;;
16727;SDS011;8482;54.396;18.590;2023-08-08T13:34:25;2.60;;;1.00;;
16727;SDS011;8482;54.396;18.590;2023-08-08T13:36:50;2.85;;;1.20;;
16727;SDS011;8482;54.396;18.590;2023-08-08T13:39:16;1.63;;;1.10;;
16727;SDS011;8482;54.396;18.590;2023-08-08T13:41:42;2.20;;;1.30;;
16727;SDS011;8482;54.396;18.590;2023-08-08T13:44:08;2.85;;;1.00;;
16727;SDS011;8482;54.396;18.590;2023-08-08T13:46:34;3.13;;;0.88;;
16727;SDS011;8482;54.396;18.590;2023-08-08T13:49:00;3.03;;;0.80;;
16727;SDS011;8482;54.396;18.590;2023-08-08T13:51:26;2.95;;;1.20;;
16727;SDS011;8482;54.396;18.590;2023-08-08T13:53:52;1.55;;;0.75;;
16727;SDS011;8482;54.396;18.590;2023-08-08T13:56:18;1.42;;;0.95;;
16727;SDS011;8482;54.396;18.590;2023-08-08T13:58:44;0.90;;;0.70;;
16727;SDS011;8482;54.396;18.590;2023-08-08T14:01:09;0.80;;;0.80;;
16727;SDS011;8482;54.396;18.590;2023-08-08T14:03:35;1.30;;;0.90;;
16727;SDS011;8482;54.396;18.590;2023-08-08T14:06:01;3.10;;;1.25;;
16727;SDS011;8482;54.396;18.590;2023-08-08T14:08:27;3.33;;;1.13;;
16727;SDS011;8482;54.396;18.590;2023-08-08T14:10:53;1.88;;;0.95;;
16727;SDS011;8482;54.396;18.590;2023-08-08T14:13:19;1.95;;;1.00;;
16727;SDS011;8482;54.396;18.590;2023-08-08T14:15:47;1.42;;;0.95;;
16727;SDS011;8482;54.396;18.590;2023-08-08T14:18:14;1.02;;;0.82;;
16727;SDS011;8482;54.396;18.590;2023-08-08T14:20:39;2.33;;;1.13;;
16727;SDS011;8482;54.396;18.590;2023-08-08T14:23:06;1.63;;;1.10;;
16727;SDS011;8482;54.396;18.590;2023-08-08T14:25:32;1.48;;;0.90;;
16727;SDS011;8482;54.396;18.590;2023-08-08T14:27:57;1.88;;;1.08;;
16727;SDS011;8482;54.396;18.590;2023-08-08T14:30:25;1.95;;;1.08;;
16727;SDS011;8482;54.396;18.590;2023-08-08T14:32:52;2.05;;;1.10;;
16727;SDS011;8482;54.396;18.590;2023-08-08T14:35:19;2.45;;;1.23;;
16727;SDS011;8482;54.396;18.590;2023-08-08T14:37:45;1.92;;;0.93;;
16727;SDS011;8482;54.396;18.590;2023-08-08T14:40:11;3.03;;;1.17;;
16727;SDS011;8482;54.396;18.590;2023-08-08T14:42:36;1.75;;;0.90;;
16727;SDS011;8482;54.396;18.590;2023-08-08T14:45:02;2.80;;;1.10;;
16727;SDS011;8482;54.396;18.590;2023-08-08T14:47:29;2.65;;;1.15;;
16727;SDS011;8482;54.396;18.590;2023-08-08T14:49:55;2.25;;;1.20;;
16727;SDS011;8482;54.396;18.590;2023-08-08T14:52:20;1.10;;;0.82;;
16727;SDS011;8482;54.396;18.590;2023-08-08T14:54:46;2.40;;;1.05;;
16727;SDS011;8482;54.396;18.590;2023-08-08T14:57:12;1.30;;;0.90;;